createdAt,value
2018-01-14T00:02:07.669Z,38.17
2018-01-14T00:04:35.884Z,34.67
2018-01-14T00:07:04.036Z,39.20
2018-01-14T00:09:32.768Z,42.53
2018-01-14T00:12:00.764Z,45.83
2018-01-14T00:14:28.828Z,44.97
2018-01-14T00:16:56.901Z,44.57
2018-01-14T00:19:24.865Z,34.93
2018-01-14T00:21:53.692Z,42.77
2018-01-14T00:24:21.641Z,42.67
2018-01-14T00:26:49.903Z,43.13
2018-01-14T00:29:18.074Z,41.13
2018-01-14T00:31:45.975Z,45.93
2018-01-14T00:34:13.883Z,41.57
2018-01-14T00:36:41.825Z,38.83
2018-01-14T00:39:09.609Z,43.83
2018-01-14T00:41:37.846Z,48.60
2018-01-14T00:44:05.609Z,47.13
2018-01-14T00:46:33.466Z,46.50
2018-01-14T00:49:01.513Z,40.80
2018-01-14T00:51:29.405Z,59.50
2018-01-14T00:53:57.279Z,96.63
2018-01-14T00:56:25.080Z,56.03
2018-01-14T00:58:53.313Z,54.17
2018-01-14T01:01:21.191Z,52.83
2018-01-14T01:03:49.145Z,48.93
2018-01-14T01:06:17.198Z,46.40
2018-01-14T01:08:45.102Z,44.60
2018-01-14T01:11:13.054Z,56.23
2018-01-14T01:13:41.029Z,52.83
2018-01-14T01:16:08.839Z,52.43
2018-01-14T01:18:37.267Z,59.60
2018-01-14T01:21:05.726Z,57.03
2018-01-14T01:23:34.273Z,52.30
2018-01-14T01:26:02.399Z,51.20
2018-01-14T01:28:30.271Z,50.43
2018-01-14T01:30:58.417Z,52.63
2018-01-14T01:33:26.265Z,49.43
2018-01-14T01:35:54.266Z,45.53
2018-01-14T01:38:22.046Z,51.73
2018-01-14T01:40:50.192Z,58.40
2018-01-14T01:43:17.967Z,50.80
2018-01-14T01:45:45.916Z,43.63
2018-01-14T01:48:13.735Z,53.40
2018-01-14T01:50:42.581Z,51.73
2018-01-14T01:53:10.484Z,47.30
2018-01-14T01:55:38.504Z,51.40
2018-01-14T01:58:06.494Z,46.90
2018-01-14T02:00:35.406Z,62.00
2018-01-14T02:03:04.448Z,54.00
2018-01-14T02:05:32.487Z,45.30
2018-01-14T02:08:01.450Z,52.93
2018-01-14T02:10:29.397Z,51.67
2018-01-14T02:12:57.261Z,49.27
2018-01-14T02:15:25.033Z,58.17
2018-01-14T02:17:52.827Z,45.07
2018-01-14T02:20:20.860Z,49.57
2018-01-14T02:22:48.754Z,52.93
2018-01-14T02:25:17.515Z,50.53
2018-01-14T02:27:45.485Z,54.53
2018-01-14T02:30:13.363Z,54.30
2018-01-14T02:32:41.347Z,61.30
2018-01-14T02:35:09.920Z,57.10
2018-01-14T02:37:38.587Z,48.40
2018-01-14T02:40:06.794Z,43.17
2018-01-14T02:42:35.168Z,43.50
2018-01-14T02:45:03.136Z,39.20
2018-01-14T02:47:30.994Z,37.97
2018-01-14T02:49:59.682Z,38.73
2018-01-14T02:52:27.503Z,44.97
2018-01-14T02:54:55.424Z,53.90
2018-01-14T02:57:23.465Z,47.10
2018-01-14T02:59:51.574Z,46.40
2018-01-14T03:02:20.130Z,38.77
2018-01-14T03:04:48.006Z,34.50
2018-01-14T03:07:15.868Z,30.93
2018-01-14T03:09:43.744Z,37.30
2018-01-14T03:12:11.582Z,34.40
2018-01-14T03:14:39.478Z,34.73
2018-01-14T03:17:07.427Z,32.93
2018-01-14T03:19:35.321Z,35.20
2018-01-14T03:22:03.292Z,37.60
2018-01-14T03:24:31.470Z,38.90
2018-01-14T03:27:00.145Z,41.93
2018-01-14T03:29:28.021Z,38.33
2018-01-14T03:31:56.700Z,33.23
2018-01-14T03:34:24.764Z,39.73
2018-01-14T03:36:53.544Z,35.43
2018-01-14T03:39:21.324Z,35.27
2018-01-14T03:41:49.274Z,38.83
2018-01-14T03:44:17.059Z,38.80
2018-01-14T03:46:45.662Z,35.57
2018-01-14T03:49:13.463Z,34.33
2018-01-14T03:51:41.224Z,35.17
2018-01-14T03:54:09.223Z,33.50
2018-01-14T03:56:37.272Z,33.17
2018-01-14T03:59:05.086Z,33.73
2018-01-14T04:01:33.856Z,35.77
2018-01-14T04:04:01.932Z,23.63
2018-01-14T04:06:30.493Z,25.87
2018-01-14T04:08:58.448Z,33.40
2018-01-14T04:11:26.233Z,32.80
2018-01-14T04:13:54.124Z,40.27
2018-01-14T04:16:22.864Z,26.30
2018-01-14T04:18:50.827Z,36.57
2018-01-14T04:21:18.733Z,30.30
2018-01-14T04:23:47.402Z,29.20
2018-01-14T04:26:15.174Z,23.33
2018-01-14T04:28:43.044Z,28.43
2018-01-14T04:31:11.617Z,33.17
2018-01-14T04:33:39.462Z,27.60
2018-01-14T04:36:07.376Z,27.23
2018-01-14T04:38:36.179Z,33.03
2018-01-14T04:41:05.210Z,29.57
2018-01-14T04:43:33.022Z,31.60
2018-01-14T04:46:01.763Z,32.03
2018-01-14T04:48:29.624Z,38.03
2018-01-14T04:50:57.807Z,28.23
2018-01-14T04:53:25.809Z,31.80
2018-01-14T04:55:53.676Z,28.77
2018-01-14T04:58:21.522Z,29.23
2018-01-14T05:00:49.477Z,31.97
2018-01-14T05:03:17.546Z,31.17
2018-01-14T05:05:45.431Z,35.03
2018-01-14T05:08:13.378Z,34.50
2018-01-14T05:10:41.388Z,29.13
2018-01-14T05:13:09.414Z,38.60
2018-01-14T05:15:38.618Z,26.43
2018-01-14T05:18:07.320Z,32.17
2018-01-14T05:20:35.137Z,35.30
2018-01-14T05:23:03.053Z,32.50
2018-01-14T05:25:31.105Z,30.93
2018-01-14T05:27:58.985Z,35.83
2018-01-14T05:30:27.041Z,31.63
2018-01-14T05:32:54.847Z,35.47
2018-01-14T05:35:22.814Z,33.73
2018-01-14T05:37:52.277Z,32.77
2018-01-14T05:40:20.165Z,33.37
2018-01-14T05:42:48.970Z,30.33
2018-01-14T05:45:16.833Z,31.33
2018-01-14T05:47:44.767Z,40.83
2018-01-14T05:50:12.743Z,35.37
2018-01-14T05:52:40.574Z,30.63
2018-01-14T05:55:08.467Z,31.67
2018-01-14T05:57:36.310Z,31.00
2018-01-14T06:00:04.222Z,36.30
2018-01-14T06:02:32.144Z,33.30
2018-01-14T06:05:00.170Z,37.40
2018-01-14T06:07:28.206Z,29.07
2018-01-14T06:09:56.004Z,35.20
2018-01-14T06:12:23.885Z,32.40
2018-01-14T06:14:52.629Z,32.33
2018-01-14T06:17:20.695Z,29.00
2018-01-14T06:19:48.609Z,33.60
2018-01-14T06:22:17.189Z,30.37
2018-01-14T06:24:45.273Z,29.03
2018-01-14T06:27:14.034Z,24.57
2018-01-14T06:29:42.315Z,34.00
2018-01-14T06:32:10.376Z,31.13
2018-01-14T06:34:38.449Z,27.33
2018-01-14T06:37:06.326Z,32.00
2018-01-14T06:39:34.171Z,40.20
2018-01-14T06:42:02.127Z,28.80
2018-01-14T06:44:29.920Z,28.10
2018-01-14T06:46:57.711Z,29.50
2018-01-14T06:49:26.357Z,30.47
2018-01-14T06:51:54.306Z,36.40
2018-01-14T06:54:22.314Z,41.77
2018-01-14T06:56:50.656Z,35.53
2018-01-14T06:59:18.724Z,33.00
2018-01-14T07:01:46.635Z,33.13
2018-01-14T07:04:14.692Z,31.67
2018-01-14T07:06:42.977Z,36.53
2018-01-14T07:09:11.852Z,36.00
2018-01-14T07:11:40.210Z,38.20
2018-01-14T07:14:08.129Z,37.20
2018-01-14T07:16:36.888Z,44.80
2018-01-14T07:19:04.932Z,42.67
2018-01-14T07:21:33.164Z,48.37
2018-01-14T07:24:01.838Z,42.10
2018-01-14T07:26:30.783Z,44.83
2018-01-14T07:28:58.844Z,44.17
2018-01-14T07:31:29.796Z,43.60
2018-01-14T07:33:57.868Z,58.07
2018-01-14T07:36:25.671Z,60.33
2018-01-14T07:38:55.121Z,57.80
2018-01-14T07:41:23.922Z,43.83
2018-01-14T07:43:51.912Z,42.53
2018-01-14T07:46:19.844Z,44.50
2018-01-14T07:48:48.065Z,39.93
2018-01-14T07:51:16.106Z,39.80
2018-01-14T07:53:43.914Z,44.43
2018-01-14T07:56:12.575Z,40.20
2018-01-14T07:58:40.522Z,42.47
2018-01-14T08:01:08.497Z,37.90
2018-01-14T08:03:37.189Z,44.10
2018-01-14T08:06:05.762Z,37.57
2018-01-14T08:08:34.376Z,41.53
2018-01-14T08:11:02.363Z,35.70
2018-01-14T08:13:30.983Z,42.87
2018-01-14T08:15:58.965Z,39.00
2018-01-14T08:18:26.862Z,37.40
2018-01-14T08:20:54.726Z,34.83
2018-01-14T08:23:22.974Z,38.47
2018-01-14T08:25:51.863Z,44.63
2018-01-14T08:28:19.739Z,40.83
2018-01-14T08:30:47.811Z,39.60
2018-01-14T08:33:15.664Z,39.10
2018-01-14T08:35:43.739Z,44.87
2018-01-14T08:38:11.635Z,47.83
2018-01-14T08:40:40.305Z,45.20
2018-01-14T08:43:08.184Z,46.90
2018-01-14T08:45:37.160Z,123.10
2018-01-14T08:48:05.033Z,157.83
2018-01-14T08:50:32.909Z,119.57
2018-01-14T08:53:00.849Z,109.33
2018-01-14T08:55:28.851Z,254.20
2018-01-14T08:57:58.140Z,114.00
2018-01-14T09:00:26.298Z,124.33
2018-01-14T09:02:54.107Z,114.17
2018-01-14T09:05:22.661Z,61.10
2018-01-14T09:07:50.732Z,69.20
2018-01-14T09:10:19.070Z,79.53
2018-01-14T09:12:46.960Z,77.27
2018-01-14T09:15:15.229Z,70.73
2018-01-14T09:17:43.535Z,188.67
2018-01-14T09:20:11.398Z,221.23
2018-01-14T09:22:39.473Z,270.80
2018-01-14T09:25:07.276Z,343.77
2018-01-14T09:27:35.139Z,80.23
2018-01-14T09:30:03.787Z,267.73
2018-01-14T09:32:31.728Z,235.47
2018-01-14T09:34:59.597Z,204.87
2018-01-14T09:37:27.565Z,122.63
2018-01-14T09:39:55.744Z,231.00
2018-01-14T09:42:23.736Z,174.23
2018-01-14T09:44:51.708Z,73.47
2018-01-14T09:47:21.080Z,70.07
2018-01-14T09:49:49.065Z,54.83
2018-01-14T09:52:17.222Z,57.60
2018-01-14T09:54:45.191Z,54.50
2018-01-14T09:57:13.061Z,52.40
2018-01-14T09:59:41.153Z,59.60
2018-01-14T10:02:08.954Z,77.70
2018-01-14T10:04:37.624Z,68.20
2018-01-14T10:07:06.146Z,59.93
2018-01-14T10:09:34.128Z,65.70
2018-01-14T10:12:02.094Z,70.37
2018-01-14T10:14:30.064Z,63.37
2018-01-14T10:16:57.953Z,68.63
2018-01-14T10:19:26.005Z,67.00
2018-01-14T10:21:55.256Z,164.47
2018-01-14T10:24:23.945Z,68.27
2018-01-14T10:26:53.735Z,71.63
2018-01-14T10:29:22.703Z,60.47
2018-01-14T10:31:50.709Z,99.83
2018-01-14T10:34:18.666Z,65.63
2018-01-14T10:36:46.633Z,68.30
2018-01-14T10:39:14.608Z,64.63
2018-01-14T10:41:43.351Z,64.80
2018-01-14T10:44:12.694Z,70.63
2018-01-14T10:46:41.353Z,94.00
2018-01-14T10:49:09.228Z,68.20
2018-01-14T10:51:37.174Z,68.57
2018-01-14T10:54:05.171Z,68.83
2018-01-14T10:56:32.987Z,64.00
2018-01-14T10:59:00.977Z,70.13
2018-01-14T11:01:31.946Z,67.50
2018-01-14T11:03:59.717Z,71.70
2018-01-14T11:06:27.576Z,59.30
2018-01-14T11:08:55.626Z,72.37
2018-01-14T11:11:24.713Z,60.90
2018-01-14T11:13:52.495Z,59.90
2018-01-14T11:16:20.645Z,64.80
2018-01-14T11:18:48.647Z,66.33
2018-01-14T11:21:16.686Z,67.77
2018-01-14T11:23:44.797Z,62.63
2018-01-14T11:26:12.730Z,66.13
2018-01-14T11:28:41.005Z,58.73
2018-01-14T11:31:08.878Z,66.53
2018-01-14T11:33:36.991Z,62.50
2018-01-14T11:36:05.840Z,60.10
2018-01-14T11:38:33.618Z,62.20
2018-01-14T11:41:01.495Z,69.13
2018-01-14T11:43:29.461Z,62.43
2018-01-14T11:45:57.398Z,63.97
2018-01-14T11:48:25.312Z,51.43
2018-01-14T11:50:54.083Z,66.30
2018-01-14T11:53:21.922Z,66.90
2018-01-14T11:55:49.788Z,62.47
2018-01-14T11:58:17.755Z,58.37
2018-01-14T12:00:45.545Z,62.93
2018-01-14T12:03:13.596Z,62.73
2018-01-14T12:05:42.585Z,60.73
2018-01-14T12:08:10.485Z,59.17
2018-01-14T12:10:38.480Z,63.40
2018-01-14T12:13:07.018Z,60.57
2018-01-14T12:15:34.768Z,52.93
2018-01-14T12:18:02.838Z,59.23
2018-01-14T12:20:30.808Z,66.63
2018-01-14T12:22:58.795Z,53.47
2018-01-14T12:25:26.716Z,61.37
2018-01-14T12:27:55.270Z,61.30
2018-01-14T12:30:24.454Z,53.90
2018-01-14T12:33:01.526Z,57.33
2018-01-14T12:35:29.583Z,66.33
2018-01-14T12:37:57.545Z,56.17
2018-01-14T12:40:25.635Z,56.60
2018-01-14T12:42:53.462Z,68.80
2018-01-14T12:45:21.395Z,61.00
2018-01-14T12:47:50.253Z,62.87
2018-01-14T12:50:18.218Z,58.83
2018-01-14T12:52:46.209Z,66.10
2018-01-14T12:55:13.980Z,80.33
2018-01-14T12:57:42.541Z,59.83
2018-01-14T13:00:10.657Z,59.97
2018-01-14T13:02:39.200Z,49.17
2018-01-14T13:05:07.046Z,49.37
2018-01-14T13:07:34.840Z,55.80
2018-01-14T13:10:03.016Z,54.23
2018-01-14T13:12:31.049Z,53.50
2018-01-14T13:14:58.855Z,58.10
2018-01-14T13:17:26.789Z,54.53
2018-01-14T13:19:54.571Z,51.47
2018-01-14T13:22:23.255Z,60.00
2018-01-14T13:24:51.090Z,54.10
2018-01-14T13:27:19.009Z,69.47
2018-01-14T13:29:47.757Z,53.53
2018-01-14T13:32:15.650Z,52.20
2018-01-14T13:34:43.538Z,52.57
2018-01-14T13:37:12.279Z,56.60
2018-01-14T13:39:40.087Z,58.10
2018-01-14T13:42:08.750Z,55.67
2018-01-14T13:44:36.595Z,47.27
2018-01-14T13:47:04.493Z,57.53
2018-01-14T13:49:32.588Z,50.57
2018-01-14T13:52:01.254Z,47.70
2018-01-14T13:54:29.288Z,46.17
2018-01-14T13:56:57.200Z,41.43
2018-01-14T13:59:25.872Z,39.03
2018-01-14T14:01:53.819Z,44.27
2018-01-14T14:04:21.609Z,44.37
2018-01-14T14:06:49.461Z,44.50
2018-01-14T14:09:17.340Z,47.67
2018-01-14T14:11:45.549Z,46.83
2018-01-14T14:14:13.556Z,40.73
2018-01-14T14:16:41.632Z,46.60
2018-01-14T14:19:09.612Z,50.40
2018-01-14T14:21:37.479Z,43.90
2018-01-14T14:24:05.248Z,44.10
2018-01-14T14:26:33.289Z,46.33
2018-01-14T14:29:01.994Z,43.07
2018-01-14T14:31:29.962Z,50.33
2018-01-14T14:33:57.849Z,43.00
2018-01-14T14:36:25.699Z,46.40
2018-01-14T14:38:53.751Z,43.27
2018-01-14T14:41:21.618Z,52.57
2018-01-14T14:43:49.690Z,47.07
2018-01-14T14:46:17.654Z,45.90
2018-01-14T14:48:45.660Z,46.40
2018-01-14T14:51:13.528Z,46.13
2018-01-14T14:53:42.173Z,45.43
2018-01-14T14:56:10.456Z,54.37
2018-01-14T14:58:38.248Z,52.17
2018-01-14T15:01:06.215Z,57.20
2018-01-14T15:03:34.029Z,48.93
2018-01-14T15:06:02.024Z,51.17
2018-01-14T15:08:30.163Z,57.73
2018-01-14T15:10:58.065Z,77.17
2018-01-14T15:13:26.031Z,51.40
2018-01-14T15:15:53.897Z,49.37
2018-01-14T15:18:21.966Z,56.67
2018-01-14T15:20:50.069Z,51.43
2018-01-14T15:23:17.844Z,50.70
2018-01-14T15:25:46.798Z,53.30
2018-01-14T15:28:14.842Z,53.57
2018-01-14T15:30:45.592Z,54.90
2018-01-14T15:33:13.810Z,53.57
2018-01-14T15:35:42.021Z,49.37
2018-01-14T15:38:09.839Z,48.57
2018-01-14T15:40:38.912Z,55.20
2018-01-14T15:43:07.008Z,48.37
2018-01-14T15:45:34.982Z,55.13
2018-01-14T15:48:03.344Z,55.60
2018-01-14T15:50:31.563Z,60.03
2018-01-14T15:53:00.319Z,49.57
2018-01-14T15:55:28.302Z,47.17
2018-01-14T15:57:57.152Z,55.10
2018-01-14T16:00:25.060Z,53.37
2018-01-14T16:02:54.218Z,52.97
2018-01-14T16:05:22.414Z,53.93
2018-01-14T16:07:50.698Z,54.40
2018-01-14T16:10:18.735Z,54.67
2018-01-14T16:12:46.803Z,52.70
2018-01-14T16:15:14.814Z,52.93
2018-01-14T16:17:42.969Z,51.03
2018-01-14T16:20:11.046Z,48.73
2018-01-14T16:22:39.022Z,53.20
2018-01-14T16:25:07.082Z,51.60
2018-01-14T16:27:35.609Z,46.50
2018-01-14T16:30:03.821Z,48.80
2018-01-14T16:32:31.818Z,56.27
2018-01-14T16:35:00.375Z,45.20
2018-01-14T16:37:28.441Z,51.37
2018-01-14T16:39:56.340Z,52.93
2018-01-14T16:42:24.518Z,52.13
2018-01-14T16:44:53.778Z,53.33
2018-01-14T16:47:21.746Z,59.23
2018-01-14T16:49:49.718Z,49.60
2018-01-14T16:52:17.817Z,55.10
2018-01-14T16:54:46.045Z,59.87
2018-01-14T16:57:14.323Z,50.70
2018-01-14T16:59:42.534Z,55.37
2018-01-14T17:02:10.482Z,56.40
2018-01-14T17:04:38.539Z,53.00
2018-01-14T17:07:06.546Z,46.43
2018-01-14T17:09:35.111Z,62.93
2018-01-14T17:12:03.379Z,51.73
2018-01-14T17:14:31.333Z,43.23
2018-01-14T17:16:59.665Z,59.57
2018-01-14T17:19:27.591Z,51.60
2018-01-14T17:21:55.595Z,48.20
2018-01-14T17:24:24.589Z,50.03
2018-01-14T17:26:52.566Z,51.53
2018-01-14T17:29:21.453Z,44.50
2018-01-14T17:31:50.224Z,52.53
2018-01-14T17:34:18.377Z,56.27
2018-01-14T17:36:46.261Z,48.53
2018-01-14T17:39:14.141Z,56.03
2018-01-14T17:41:42.381Z,57.17
2018-01-14T17:44:10.410Z,52.07
2018-01-14T17:46:39.017Z,51.13
2018-01-14T17:49:07.225Z,50.30
2018-01-14T17:51:35.303Z,45.77
2018-01-14T17:54:03.156Z,45.03
2018-01-14T17:56:31.051Z,50.67
2018-01-14T17:58:58.910Z,47.33
2018-01-14T18:01:27.158Z,51.20
2018-01-14T18:03:55.062Z,51.90
2018-01-14T18:06:23.091Z,61.13
2018-01-14T18:08:51.174Z,52.50
2018-01-14T18:11:18.986Z,51.80
2018-01-14T18:13:47.649Z,59.73
2018-01-14T18:16:15.614Z,63.43
2018-01-14T18:18:44.287Z,58.53
2018-01-14T18:21:12.617Z,54.40
2018-01-14T18:23:40.529Z,53.80
2018-01-14T18:26:08.405Z,52.67
2018-01-14T18:28:36.246Z,55.77
2018-01-14T18:31:04.226Z,45.50
2018-01-14T18:33:32.123Z,54.20
2018-01-14T18:36:00.873Z,63.80
2018-01-14T18:38:28.852Z,58.57
2018-01-14T18:40:56.749Z,58.23
2018-01-14T18:43:24.700Z,51.10
2018-01-14T18:46:05.283Z,50.97
2018-01-14T18:48:34.028Z,53.77
2018-01-14T18:51:02.001Z,55.53
2018-01-14T18:53:29.865Z,56.87
2018-01-14T18:55:57.904Z,63.00
2018-01-14T18:58:25.913Z,54.40
2018-01-14T19:00:56.749Z,75.73
2018-01-14T19:03:25.529Z,86.77
2018-01-14T19:05:53.501Z,63.50
2018-01-14T19:08:21.467Z,63.43
2018-01-14T19:10:49.808Z,58.27
2018-01-14T19:13:17.734Z,60.67
2018-01-14T19:15:45.796Z,74.50
2018-01-14T19:18:13.746Z,60.63
2018-01-14T19:20:41.740Z,52.87
2018-01-14T19:23:09.638Z,63.80
2018-01-14T19:25:37.751Z,57.13
2018-01-14T19:28:05.645Z,55.70
2018-01-14T19:30:33.589Z,56.43
2018-01-14T19:33:01.676Z,54.63
2018-01-14T19:35:29.651Z,54.90
2018-01-14T19:37:57.810Z,55.93
2018-01-14T19:40:26.628Z,62.77
2018-01-14T19:42:55.377Z,62.93
2018-01-14T19:45:23.454Z,49.90
2018-01-14T19:47:51.418Z,63.10
2018-01-14T19:50:19.501Z,59.27
2018-01-14T19:52:49.216Z,55.23
2018-01-14T19:55:21.558Z,53.17
2018-01-14T19:57:52.837Z,52.70
2018-01-14T20:00:21.499Z,52.77
2018-01-14T20:02:53.735Z,55.53
2018-01-14T20:05:24.724Z,63.07
2018-01-14T20:07:59.800Z,72.50
2018-01-14T20:10:35.353Z,62.70
2018-01-14T20:13:06.361Z,74.37
2018-01-14T20:15:38.139Z,90.97
2018-01-14T20:18:07.640Z,86.80
2018-01-14T20:20:40.005Z,70.50
2018-01-14T20:23:13.498Z,77.10
2018-01-14T20:25:44.491Z,59.43
2018-01-14T20:28:17.677Z,68.87
2018-01-14T20:30:50.348Z,62.00
2018-01-14T20:33:18.470Z,60.10
2018-01-14T20:35:54.386Z,71.63
2018-01-14T20:38:25.343Z,49.73
2018-01-14T20:40:56.518Z,66.00
2018-01-14T20:43:33.588Z,68.90
2018-01-14T20:46:10.667Z,61.07
2018-01-14T20:48:41.987Z,55.17
2018-01-14T20:51:12.768Z,60.43
2018-01-14T20:53:44.960Z,58.87
2018-01-14T20:56:16.396Z,58.57
2018-01-14T20:58:47.460Z,62.90
2018-01-14T21:01:15.297Z,62.77
2018-01-14T21:03:44.641Z,63.90
2018-01-14T21:06:12.653Z,68.50
2018-01-14T21:08:41.338Z,67.23
2018-01-14T21:11:10.926Z,66.63
2018-01-14T21:13:38.816Z,72.80
2018-01-14T21:16:06.671Z,64.77
2018-01-14T21:18:34.632Z,69.67
2018-01-14T21:21:02.617Z,69.77
2018-01-14T21:23:30.476Z,68.57
2018-01-14T21:25:58.443Z,65.47
2018-01-14T21:28:26.310Z,62.00
2018-01-14T21:30:54.398Z,69.07
2018-01-14T21:33:22.249Z,68.13
2018-01-14T21:35:50.245Z,69.87
2018-01-14T21:38:18.789Z,69.03
2018-01-14T21:40:46.750Z,71.60
2018-01-14T21:43:14.643Z,95.33
2018-01-14T21:45:42.777Z,79.10
2018-01-14T21:48:10.758Z,75.43
2018-01-14T21:50:38.658Z,77.33
2018-01-14T21:53:06.598Z,88.43
2018-01-14T21:55:34.369Z,80.73
2018-01-14T21:58:03.252Z,78.70
2018-01-14T22:00:31.191Z,69.30
2018-01-14T22:02:59.123Z,80.30
2018-01-14T22:05:27.810Z,75.90
2018-01-14T22:07:56.759Z,75.97
2018-01-14T22:10:24.655Z,83.83
2018-01-14T22:12:52.534Z,84.53
2018-01-14T22:15:21.109Z,81.43
2018-01-14T22:17:50.611Z,78.17
2018-01-14T22:20:19.374Z,82.70
2018-01-14T22:22:47.309Z,86.27
2018-01-14T22:25:15.119Z,78.57
2018-01-14T22:27:42.975Z,80.50
2018-01-14T22:30:10.879Z,84.00
2018-01-14T22:32:39.728Z,74.43
2018-01-14T22:35:07.691Z,87.90
2018-01-14T22:37:35.759Z,78.63
2018-01-14T22:40:03.727Z,90.33
2018-01-14T22:42:31.567Z,84.70
2018-01-14T22:44:59.462Z,84.73
2018-01-14T22:47:27.218Z,77.23
2018-01-14T22:49:55.919Z,89.90
2018-01-14T22:52:24.524Z,94.83
2018-01-14T22:54:52.769Z,100.60
2018-01-14T22:57:20.636Z,94.97
2018-01-14T22:59:48.742Z,102.13
2018-01-14T23:02:17.563Z,135.97
2018-01-14T23:04:45.332Z,159.70
2018-01-14T23:07:13.148Z,164.03
2018-01-14T23:09:41.110Z,226.23
2018-01-14T23:12:08.890Z,211.93
2018-01-14T23:14:36.772Z,143.73
2018-01-14T23:17:05.429Z,119.87
2018-01-14T23:22:26.214Z,93.50
2018-01-14T23:24:53.977Z,114.37
2018-01-14T23:27:21.868Z,122.00
2018-01-14T23:29:49.650Z,112.13
2018-01-14T23:32:18.439Z,107.03
2018-01-14T23:34:46.299Z,100.30
2018-01-14T23:37:14.169Z,90.63
2018-01-14T23:39:41.995Z,94.23
2018-01-14T23:42:10.318Z,97.13
2018-01-14T23:44:38.256Z,91.13
2018-01-14T23:47:06.967Z,106.80
2018-01-14T23:49:34.889Z,96.90
2018-01-14T23:52:02.749Z,91.90
2018-01-14T23:54:30.710Z,92.77
2018-01-14T23:56:58.513Z,88.00
2018-01-14T23:59:26.437Z,78.47
